Time;durP1;ratioP1;P1;durP2;ratioP2;P2;SDS_P1;SDS_P2;PMS_P1;PMS_P2;Temp;Humidity;BMP_temperature;BMP_pressure;BME280_temperature;BME280_humidity;BME280_pressure;Samples;Min_cycle;Max_cycle;Signal;HPM_P1;HPM_P2
2022/12/25 00:00:05;;;;;;;;;21.50;21.25;;;;;-147.17;100.00;-15917.19;4973604;28;51005;-56
2022/12/25 00:02:31;;;;;;;;;19.50;17.50;;;;;-147.17;100.00;-15917.19;4969903;28;51427;-55
2022/12/25 00:04:56;;;;;;;;;16.25;14.50;;;;;-147.17;100.00;-15917.19;4965093;28;54546;-55
2022/12/25 00:07:21;;;;;;;;;19.50;17.75;;;;;-147.17;100.00;-15917.19;4981073;28;51317;-53
2022/12/25 00:09:47;;;;;;;;;16.25;13.25;;;;;-147.17;100.00;-15917.19;4982619;28;50964;-54
2022/12/25 00:12:12;;;;;;;;;20.00;20.00;;;;;-147.17;100.00;-15917.19;4982915;28;51161;-55
2022/12/25 00:14:37;;;;;;;;;20.00;19.00;;;;;-147.17;100.00;-15917.19;4977467;28;51878;-53
2022/12/25 00:17:03;;;;;;;;;22.75;21.25;;;;;-147.17;100.00;-15917.19;4991526;28;51031;-55
2022/12/25 00:19:28;;;;;;;;;17.50;16.50;;;;;-147.17;100.00;-15917.19;4969692;28;51393;-56
2022/12/25 00:21:53;;;;;;;;;21.50;19.25;;;;;-147.17;100.00;-15917.19;4990044;28;51156;-57
2022/12/25 00:24:19;;;;;;;;;16.50;15.00;;;;;-147.17;100.00;-15917.19;4978699;28;51267;-54
2022/12/25 00:26:44;;;;;;;;;21.75;20.25;;;;;-147.17;100.00;-15917.19;4985301;28;51271;-55
2022/12/25 00:29:12;;;;;;;;;19.00;18.75;;;;;-147.17;100.00;-15917.19;4983980;28;51023;-54
2022/12/25 00:31:40;;;;;;;;;21.00;20.00;;;;;-147.17;100.00;-15917.19;4978757;28;51196;-55
2022/12/25 00:34:05;;;;;;;;;19.25;18.25;;;;;-147.17;100.00;-15917.19;4985464;28;53636;-56
2022/12/25 00:36:31;;;;;;;;;20.25;20.25;;;;;-147.17;100.00;-15917.19;4980869;28;51305;-54
2022/12/25 00:38:56;;;;;;;;;18.50;18.50;;;;;-147.17;100.00;-15917.19;4985361;28;51039;-56
2022/12/25 00:44:08;;;;;;;;;12.25;11.00;;;;;-147.17;100.00;-15917.19;4983380;28;51538;-54
2022/12/25 00:46:34;;;;;;;;;12.25;11.25;;;;;-147.17;100.00;-15917.19;4981840;28;51256;-56
2022/12/25 00:49:00;;;;;;;;;13.00;11.75;;;;;-147.17;100.00;-15917.19;4985278;28;51478;-56
2022/12/25 00:51:26;;;;;;;;;14.75;13.00;;;;;-147.17;100.00;-15917.19;4985985;28;51083;-56
2022/12/25 00:53:51;;;;;;;;;12.00;11.50;;;;;-147.17;100.00;-15917.19;4979772;28;51353;-55
2022/12/25 00:56:16;;;;;;;;;12.50;11.75;;;;;-147.17;100.00;-15917.19;4973960;28;51106;-56
2022/12/25 00:58:42;;;;;;;;;14.00;13.25;;;;;-147.17;100.00;-15917.19;4975035;28;53247;-56
2022/12/25 01:01:10;;;;;;;;;14.25;13.25;;;;;-147.17;100.00;-15917.19;4975145;28;51322;-54
2022/12/25 01:03:35;;;;;;;;;13.25;12.50;;;;;-147.17;100.00;-15917.19;4979394;28;52001;-54
2022/12/25 01:06:03;;;;;;;;;12.00;12.00;;;;;-147.17;100.00;-15917.19;4975642;28;51278;-56
2022/12/25 01:08:31;;;;;;;;;12.25;12.25;;;;;-147.17;100.00;-15917.19;4979562;28;51241;-58
2022/12/25 01:11:04;;;;;;;;;12.75;12.50;;;;;-147.17;100.00;-15917.19;4984744;28;51401;-56
2022/12/25 01:13:33;;;;;;;;;15.75;14.25;;;;;-147.17;100.00;-15917.19;4976009;28;51070;-56
2022/12/25 01:16:05;;;;;;;;;16.50;15.00;;;;;-147.17;100.00;-15917.19;4980566;28;51236;-56
2022/12/25 01:18:30;;;;;;;;;16.50;14.50;;;;;-147.17;100.00;-15917.19;4976500;28;51338;-56
2022/12/25 01:20:55;;;;;;;;;16.75;15.00;;;;;-147.17;100.00;-15917.19;4982028;28;51181;-55
2022/12/25 01:23:21;;;;;;;;;17.00;14.50;;;;;-147.17;100.00;-15917.19;4976787;28;51876;-55
2022/12/25 01:25:46;;;;;;;;;16.75;16.00;;;;;-147.17;100.00;-15917.19;4979620;28;51217;-55
2022/12/25 01:28:12;;;;;;;;;18.25;17.50;;;;;-147.17;100.00;-15917.19;4984137;28;51366;-55
2022/12/25 01:30:38;;;;;;;;;15.00;14.50;;;;;-147.17;100.00;-15917.19;4974223;28;51592;-56
2022/12/25 01:33:04;;;;;;;;;18.75;16.50;;;;;-147.17;100.00;-15917.19;4974974;28;51398;-56
2022/12/25 01:35:29;;;;;;;;;19.00;15.50;;;;;-147.17;100.00;-15917.19;4981333;28;51102;-56
2022/12/25 01:37:55;;;;;;;;;18.25;15.75;;;;;-147.17;100.00;-15917.19;4968227;28;51235;-56
2022/12/25 01:40:20;;;;;;;;;8.33;8.00;;;;;-147.17;100.00;-15917.19;4964986;28;51253;-56
2022/12/25 01:42:45;;;;;;;;;12.00;12.00;;;;;-147.17;100.00;-15917.19;4982236;28;53022;-56
2022/12/25 01:45:32;;;;;;;;;15.25;14.75;;;;;-147.17;100.00;-15917.19;4988597;28;51079;-56
2022/12/25 01:47:59;;;;;;;;;16.50;15.00;;;;;-147.17;100.00;-15917.19;4978737;28;51027;-55
2022/12/25 01:50:26;;;;;;;;;11.00;11.00;;;;;-147.17;100.00;-15917.19;4983930;28;51182;-56
2022/12/25 01:52:52;;;;;;;;;15.75;15.75;;;;;-147.17;100.00;-15917.19;4981924;28;51311;-56
2022/12/25 01:55:18;;;;;;;;;14.75;12.75;;;;;-147.17;100.00;-15917.19;4977336;28;51214;-55
2022/12/25 01:57:44;;;;;;;;;9.75;9.75;;;;;-147.17;100.00;-15917.19;4977193;28;51266;-55
2022/12/25 02:00:12;;;;;;;;;11.00;11.00;;;;;-147.17;100.00;-15917.19;4987497;28;51276;-56
2022/12/25 02:02:38;;;;;;;;;10.50;9.50;;;;;-147.17;100.00;-15917.19;4979597;28;52133;-54
2022/12/25 02:05:14;;;;;;;;;10.50;10.50;;;;;-147.17;100.00;-15917.19;4987220;28;51139;-55
2022/12/25 02:07:41;;;;;;;;;10.25;8.25;;;;;-147.17;100.00;-15917.19;4992044;28;51295;-55
2022/12/25 02:10:09;;;;;;;;;11.00;9.33;;;;;-147.17;100.00;-15917.19;4985216;28;51375;-52
2022/12/25 02:12:36;;;;;;;;;11.00;9.67;;;;;-147.17;100.00;-15917.19;4986054;28;51139;-54
2022/12/25 02:15:23;;;;;;;;;11.33;10.00;;;;;-147.17;100.00;-15917.19;4981811;28;51369;-55
2022/12/25 02:18:12;;;;;;;;;14.00;12.67;;;;;-147.17;100.00;-15917.19;4976825;28;51242;-54
2022/12/25 02:20:40;;;;;;;;;8.67;8.67;;;;;-147.17;100.00;-15917.19;4974733;28;51206;-55
2022/12/25 02:23:24;;;;;;;;;10.67;8.67;;;;;-147.17;100.00;-15917.19;4987384;28;52434;-57
2022/12/25 02:26:09;;;;;;;;;13.33;11.00;;;;;-147.17;100.00;-15917.19;4980994;28;51087;-54
2022/12/25 02:28:41;;;;;;;;;8.33;8.33;;;;;-147.17;100.00;-15917.19;4991557;28;50946;-55
2022/12/25 02:31:14;;;;;;;;;10.00;8.67;;;;;-147.17;100.00;-15917.19;4989121;28;51247;-53
2022/12/25 02:34:02;;;;;;;;;10.33;10.00;;;;;-147.17;100.00;-15917.19;4988256;28;52827;-53
2022/12/25 02:36:39;;;;;;;;;14.00;12.33;;;;;-147.17;100.00;-15917.19;4988744;28;51051;-53
2022/12/25 02:42:04;;;;;;;;;11.00;9.67;;;;;-147.17;100.00;-15917.19;4980696;28;51135;-53
2022/12/25 03:07:15;;;;;;;;;11.67;10.00;;;;;-147.17;100.00;-15917.19;4975269;28;51288;-50
2022/12/25 03:12:42;;;;;;;;;13.00;12.50;;;;;-147.17;100.00;-15917.19;4986081;28;51122;-51
2022/12/25 03:18:00;;;;;;;;;16.50;13.75;;;;;-147.17;100.00;-15917.19;4974629;28;51117;-51
2022/12/25 03:28:40;;;;;;;;;15.75;14.50;;;;;-147.17;100.00;-15917.19;4975894;28;51504;-50
2022/12/25 03:31:25;;;;;;;;;11.75;11.25;;;;;-147.17;100.00;-15917.19;4978566;28;51261;-51
2022/12/25 04:37:51;;;;;;;;;20.00;18.00;;;;;-147.17;100.00;-15917.19;4973658;28;51159;-56
2022/12/25 04:40:17;;;;;;;;;22.25;20.75;;;;;-147.17;100.00;-15917.19;4982319;28;51147;-53
2022/12/25 04:42:42;;;;;;;;;20.50;18.00;;;;;-147.17;100.00;-15917.19;4976140;28;51193;-53
2022/12/25 04:45:08;;;;;;;;;20.50;20.00;;;;;-147.17;100.00;-15917.19;4979676;28;51089;-51
2022/12/25 04:47:34;;;;;;;;;26.00;22.50;;;;;-147.17;100.00;-15917.19;4980935;28;51415;-50
2022/12/25 04:49:59;;;;;;;;;21.00;20.25;;;;;-147.17;100.00;-15917.19;4966610;28;51536;-51
2022/12/25 04:52:24;;;;;;;;;20.50;20.00;;;;;-147.17;100.00;-15917.19;4982629;28;51325;-50
2022/12/25 04:54:50;;;;;;;;;19.25;17.75;;;;;-147.17;100.00;-15917.19;4985396;28;51161;-50
2022/12/25 04:57:15;;;;;;;;;26.75;21.00;;;;;-147.17;100.00;-15917.19;4985103;28;51105;-51
2022/12/25 04:59:41;;;;;;;;;22.25;19.75;;;;;-147.17;100.00;-15917.19;4977680;28;51129;-52
2022/12/25 05:02:06;;;;;;;;;18.50;17.25;;;;;-147.17;100.00;-15917.19;4975013;28;51201;-50
2022/12/25 05:04:32;;;;;;;;;16.50;15.50;;;;;-147.17;100.00;-15917.19;4975182;28;51610;-53
2022/12/25 05:06:57;;;;;;;;;20.00;19.50;;;;;-147.17;100.00;-15917.19;4973453;28;51277;-52
2022/12/25 05:09:24;;;;;;;;;24.25;22.00;;;;;-147.17;100.00;-15917.19;4980978;28;51031;-51
2022/12/25 05:11:49;;;;;;;;;31.50;27.00;;;;;-147.17;100.00;-15917.19;4964405;28;51179;-53
2022/12/25 05:14:15;;;;;;;;;26.25;25.25;;;;;-147.17;100.00;-15917.19;4974502;28;52131;-53
2022/12/25 05:16:40;;;;;;;;;27.25;25.50;;;;;-147.17;100.00;-15917.19;4979061;28;51407;-54
2022/12/25 05:19:05;;;;;;;;;24.00;23.00;;;;;-147.17;100.00;-15917.19;4978211;28;51181;-51
2022/12/25 05:21:31;;;;;;;;;23.25;21.25;;;;;-147.17;100.00;-15917.19;4977942;28;51115;-51
2022/12/25 05:23:56;;;;;;;;;27.50;22.00;;;;;-147.17;100.00;-15917.19;4974263;28;51087;-50
2022/12/25 05:26:24;;;;;;;;;25.00;24.50;;;;;-147.17;100.00;-15917.19;4982829;28;51047;-50
2022/12/25 05:28:50;;;;;;;;;26.75;25.50;;;;;-147.17;100.00;-15917.19;4983921;28;51180;-54
2022/12/25 05:31:16;;;;;;;;;27.75;22.25;;;;;-147.17;100.00;-15917.19;4984997;28;51164;-52
2022/12/25 05:33:41;;;;;;;;;20.00;19.25;;;;;-147.17;100.00;-15917.19;4984719;28;53743;-54
2022/12/25 05:36:09;;;;;;;;;22.50;21.50;;;;;-147.17;100.00;-15917.19;4991973;28;51054;-54
2022/12/25 05:38:35;;;;;;;;;29.00;24.25;;;;;-147.17;100.00;-15917.19;4981828;28;51473;-55
2022/12/25 05:41:01;;;;;;;;;21.75;19.00;;;;;-147.17;100.00;-15917.19;4976577;28;51352;-52
2022/12/25 05:43:27;;;;;;;;;21.00;19.00;;;;;-147.17;100.00;-15917.19;4981245;28;51363;-53
2022/12/25 05:45:53;;;;;;;;;20.50;20.25;;;;;-147.17;100.00;-15917.19;4981086;28;51073;-52
2022/12/25 05:48:18;;;;;;;;;22.25;21.25;;;;;-147.17;100.00;-15917.19;4979870;28;51068;-53
2022/12/25 05:50:44;;;;;;;;;20.00;17.25;;;;;-147.17;100.00;-15917.19;4977230;28;51160;-53
2022/12/25 05:53:12;;;;;;;;;26.25;21.75;;;;;-147.17;100.00;-15917.19;4987493;28;52935;-53
2022/12/25 05:55:39;;;;;;;;;20.75;20.00;;;;;-147.17;100.00;-15917.19;4974584;28;51185;-53
2022/12/25 05:58:06;;;;;;;;;20.75;19.25;;;;;-147.17;100.00;-15917.19;4978723;28;51082;-51
2022/12/25 06:00:33;;;;;;;;;21.00;19.75;;;;;-147.17;100.00;-15917.19;4989706;28;51026;-55
2022/12/25 06:02:58;;;;;;;;;18.75;15.75;;;;;-147.17;100.00;-15917.19;4979539;28;51305;-54
2022/12/25 06:05:23;;;;;;;;;16.50;16.00;;;;;-147.17;100.00;-15917.19;4984874;28;50893;-55
2022/12/25 06:07:49;;;;;;;;;22.00;20.75;;;;;-147.17;100.00;-15917.19;4970428;28;51623;-54
2022/12/25 06:10:14;;;;;;;;;23.50;19.75;;;;;-147.17;100.00;-15917.19;4981063;28;51302;-53
2022/12/25 06:12:40;;;;;;;;;22.25;20.25;;;;;-147.17;100.00;-15917.19;4976744;28;51946;-52
2022/12/25 06:15:06;;;;;;;;;13.00;12.50;;;;;-147.17;100.00;-15917.19;4991011;28;51089;-51
2022/12/25 06:17:31;;;;;;;;;18.75;17.00;;;;;-147.17;100.00;-15917.19;4980554;28;51169;-51
2022/12/25 06:19:57;;;;;;;;;15.50;15.25;;;;;-147.17;100.00;-15917.19;4982354;28;51079;-51
2022/12/25 06:22:22;;;;;;;;;18.75;17.25;;;;;-147.17;100.00;-15917.19;4978152;28;51969;-52
2022/12/25 06:24:48;;;;;;;;;16.25;16.25;;;;;-147.17;100.00;-15917.19;4989022;28;51218;-51
2022/12/25 06:27:14;;;;;;;;;22.50;20.75;;;;;-147.17;100.00;-15917.19;4976744;28;51357;-53
2022/12/25 06:29:39;;;;;;;;;20.25;18.25;;;;;-147.17;100.00;-15917.19;4978682;28;51063;-50
2022/12/25 06:32:05;;;;;;;;;16.25;15.50;;;;;-147.17;100.00;-15917.19;4975473;28;51686;-52
2022/12/25 06:34:30;;;;;;;;;22.50;16.75;;;;;-147.17;100.00;-15917.19;4978006;28;51112;-52
2022/12/25 06:36:55;;;;;;;;;24.50;22.25;;;;;-147.17;100.00;-15917.19;4982172;28;51028;-52
2022/12/25 06:39:21;;;;;;;;;16.25;14.75;;;;;-147.17;100.00;-15917.19;4976257;28;51166;-53
2022/12/25 06:41:47;;;;;;;;;17.00;17.00;;;;;-147.17;100.00;-15917.19;4987920;28;52054;-53
2022/12/25 06:44:12;;;;;;;;;22.25;19.25;;;;;-147.17;100.00;-15917.19;4968545;28;51182;-52
2022/12/25 06:46:38;;;;;;;;;20.50;18.25;;;;;-147.17;100.00;-15917.19;4981769;28;51734;-51
2022/12/25 06:49:03;;;;;;;;;17.00;16.00;;;;;-147.17;100.00;-15917.19;4980135;28;51057;-53
2022/12/25 06:51:31;;;;;;;;;16.00;15.25;;;;;-147.17;100.00;-15917.19;4986319;28;51626;-52
2022/12/25 06:53:57;;;;;;;;;21.25;15.50;;;;;-147.17;100.00;-15917.19;4993485;28;52232;-53
2022/12/25 06:56:25;;;;;;;;;19.25;17.50;;;;;-147.17;100.00;-15917.19;4987165;28;51225;-53
2022/12/25 06:58:53;;;;;;;;;15.00;13.50;;;;;-147.17;100.00;-15917.19;4978505;28;51352;-53
2022/12/25 07:01:25;;;;;;;;;16.00;15.00;;;;;-147.17;100.00;-15917.19;4978404;28;51845;-53
2022/12/25 07:03:55;;;;;;;;;19.25;16.00;;;;;-147.17;100.00;-15917.19;4984310;28;51100;-53
2022/12/25 07:06:20;;;;;;;;;18.25;16.75;;;;;-147.17;100.00;-15917.19;4984719;28;51302;-53
2022/12/25 07:08:46;;;;;;;;;15.00;14.00;;;;;-147.17;100.00;-15917.19;4989313;28;51351;-53
2022/12/25 07:11:11;;;;;;;;;16.25;15.25;;;;;-147.17;100.00;-15917.19;4988120;28;52088;-51
2022/12/25 07:13:37;;;;;;;;;13.00;13.00;;;;;-147.17;100.00;-15917.19;4980599;28;51185;-51
2022/12/25 07:16:04;;;;;;;;;13.75;13.00;;;;;-147.17;100.00;-15917.19;4975757;28;51975;-51
2022/12/25 07:18:30;;;;;;;;;14.75;13.75;;;;;-147.17;100.00;-15917.19;4987566;28;51360;-51
2022/12/25 07:20:55;;;;;;;;;17.25;15.00;;;;;-147.17;100.00;-15917.19;4998061;28;52097;-51
2022/12/25 07:23:26;;;;;;;;;12.75;12.50;;;;;-147.17;100.00;-15917.19;4992350;28;51039;-50
2022/12/25 07:25:53;;;;;;;;;13.50;12.75;;;;;-147.17;100.00;-15917.19;4988683;28;51172;-52
2022/12/25 07:28:18;;;;;;;;;15.00;14.00;;;;;-147.17;100.00;-15917.19;4982609;28;51477;-52
2022/12/25 07:30:43;;;;;;;;;11.50;11.50;;;;;-147.17;100.00;-15917.19;4982288;28;52385;-53
2022/12/25 07:33:09;;;;;;;;;14.50;14.00;;;;;-147.17;100.00;-15917.19;4992270;28;51039;-50
2022/12/25 07:35:34;;;;;;;;;12.50;11.75;;;;;-147.17;100.00;-15917.19;4991032;28;51042;-52
2022/12/25 07:37:59;;;;;;;;;12.75;12.75;;;;;-147.17;100.00;-15917.19;4985651;28;51798;-52
2022/12/25 07:40:25;;;;;;;;;15.00;15.00;;;;;-147.17;100.00;-15917.19;4981454;28;51730;-54
2022/12/25 07:42:50;;;;;;;;;15.25;14.00;;;;;-147.17;100.00;-15917.19;4980685;28;50964;-52
2022/12/25 07:45:15;;;;;;;;;16.50;15.75;;;;;-147.17;100.00;-15917.19;4991565;28;50931;-52
2022/12/25 07:47:42;;;;;;;;;13.00;12.75;;;;;-147.17;100.00;-15917.19;4987744;28;51196;-52
2022/12/25 07:50:08;;;;;;;;;14.25;12.50;;;;;-147.17;100.00;-15917.19;4991314;28;52667;-51
2022/12/25 07:52:33;;;;;;;;;12.25;12.25;;;;;-147.17;100.00;-15917.19;4981878;28;51054;-51
2022/12/25 07:54:58;;;;;;;;;11.50;10.75;;;;;-147.17;100.00;-15917.19;4988918;28;51222;-52
2022/12/25 07:57:24;;;;;;;;;11.25;11.25;;;;;-147.17;100.00;-15917.19;4982213;28;51323;-54
2022/12/25 07:59:49;;;;;;;;;12.25;12.25;;;;;-147.17;100.00;-15917.19;4973773;28;51227;-52
2022/12/25 08:02:15;;;;;;;;;14.00;13.50;;;;;-147.17;100.00;-15917.19;4973017;28;51310;-53
2022/12/25 08:04:41;;;;;;;;;14.00;13.00;;;;;-147.17;100.00;-15917.19;4993358;28;51306;-51
2022/12/25 08:07:06;;;;;;;;;13.75;12.25;;;;;-147.17;100.00;-15917.19;4979715;28;50984;-51
2022/12/25 08:09:31;;;;;;;;;13.25;12.25;;;;;-147.17;100.00;-15917.19;4976839;28;51072;-53
2022/12/25 08:11:57;;;;;;;;;11.00;10.75;;;;;-147.17;100.00;-15917.19;4989743;28;51037;-50
2022/12/25 08:14:22;;;;;;;;;15.25;12.75;;;;;-147.17;100.00;-15917.19;4991414;28;52874;-54
2022/12/25 08:16:47;;;;;;;;;14.25;12.75;;;;;-147.17;100.00;-15917.19;4992043;28;51384;-53
2022/12/25 08:19:13;;;;;;;;;11.50;11.00;;;;;-147.17;100.00;-15917.19;4987747;28;51974;-53
2022/12/25 08:21:39;;;;;;;;;13.25;11.75;;;;;-147.17;100.00;-15917.19;4978123;28;53540;-53
2022/12/25 08:24:04;;;;;;;;;12.00;10.75;;;;;-147.17;100.00;-15917.19;4978009;28;51193;-49
2022/12/25 08:26:30;;;;;;;;;14.00;14.00;;;;;-147.17;100.00;-15917.19;4986400;28;51214;-51
2022/12/25 08:28:55;;;;;;;;;13.50;12.50;;;;;-147.17;100.00;-15917.19;4989500;28;51421;-53
2022/12/25 08:31:26;;;;;;;;;12.00;11.50;;;;;-147.17;100.00;-15917.19;4990594;28;51067;-53
2022/12/25 08:33:54;;;;;;;;;13.00;12.00;;;;;-147.17;100.00;-15917.19;4990683;28;51082;-53
2022/12/25 08:36:20;;;;;;;;;11.50;10.50;;;;;-147.17;100.00;-15917.19;4982675;28;51004;-54
2022/12/25 08:38:46;;;;;;;;;11.75;11.50;;;;;-147.17;100.00;-15917.19;4988260;28;52081;-53
2022/12/25 08:41:12;;;;;;;;;14.25;14.00;;;;;-147.17;100.00;-15917.19;4991958;28;50945;-51
2022/12/25 08:43:38;;;;;;;;;11.00;10.00;;;;;-147.17;100.00;-15917.19;4990988;28;51316;-53
2022/12/25 08:46:04;;;;;;;;;10.25;9.00;;;;;-147.17;100.00;-15917.19;4968248;28;50968;-52
2022/12/25 08:48:29;;;;;;;;;11.00;10.50;;;;;-147.17;100.00;-15917.19;4990006;28;51039;-53
2022/12/25 08:50:55;;;;;;;;;9.33;9.33;;;;;-147.17;100.00;-15917.19;4991208;28;51054;-53
2022/12/25 08:53:21;;;;;;;;;11.00;11.00;;;;;-147.17;100.00;-15917.19;4991619;28;51194;-52
2022/12/25 08:55:46;;;;;;;;;10.33;8.67;;;;;-147.17;100.00;-15917.19;4978042;28;51101;-50
2022/12/25 08:58:13;;;;;;;;;11.50;10.75;;;;;-147.17;100.00;-15917.19;4982209;28;52272;-50
2022/12/25 09:00:39;;;;;;;;;8.67;7.00;;;;;-147.17;100.00;-15917.19;4980833;28;51177;-51
2022/12/25 09:03:05;;;;;;;;;11.25;11.00;;;;;-147.17;100.00;-15917.19;4987037;28;51021;-50
2022/12/25 09:05:34;;;;;;;;;11.75;11.75;;;;;-147.17;100.00;-15917.19;4990269;28;51299;-49
2022/12/25 09:07:59;;;;;;;;;9.50;9.50;;;;;-147.17;100.00;-15917.19;4988341;28;51076;-49
2022/12/25 09:10:24;;;;;;;;;10.00;9.33;;;;;-147.17;100.00;-15917.19;4989566;28;51200;-47
2022/12/25 09:12:50;;;;;;;;;12.75;11.25;;;;;-147.17;100.00;-15917.19;4985754;28;51082;-49
2022/12/25 09:15:15;;;;;;;;;11.00;11.00;;;;;-147.17;100.00;-15917.19;4984518;28;51206;-47
2022/12/25 09:17:40;;;;;;;;;14.75;12.75;;;;;-147.17;100.00;-15917.19;4991763;28;51762;-50
2022/12/25 09:20:06;;;;;;;;;14.25;12.25;;;;;-147.17;100.00;-15917.19;4982298;28;51135;-49
2022/12/25 09:22:32;;;;;;;;;10.00;9.50;;;;;-147.17;100.00;-15917.19;4990317;28;51137;-49
2022/12/25 09:24:58;;;;;;;;;13.00;10.25;;;;;-147.17;100.00;-15917.19;4978306;28;51268;-47
2022/12/25 09:27:23;;;;;;;;;10.00;9.25;;;;;-147.17;100.00;-15917.19;4984603;28;51107;-47
2022/12/25 09:29:49;;;;;;;;;11.00;11.00;;;;;-147.17;100.00;-15917.19;4984245;28;51039;-49
2022/12/25 09:32:14;;;;;;;;;10.00;10.00;;;;;-147.17;100.00;-15917.19;4990735;28;50988;-49
2022/12/25 09:34:40;;;;;;;;;11.33;10.33;;;;;-147.17;100.00;-15917.19;4992939;28;51380;-48
2022/12/25 09:37:05;;;;;;;;;13.00;12.25;;;;;-147.17;100.00;-15917.19;4987815;28;52019;-47
2022/12/25 09:39:30;;;;;;;;;13.25;13.00;;;;;-147.17;100.00;-15917.19;4967557;28;51059;-48
2022/12/25 09:42:04;;;;;;;;;10.00;10.00;;;;;-147.17;100.00;-15917.19;4979848;28;51131;-48
2022/12/25 09:44:35;;;;;;;;;12.00;10.00;;;;;-147.17;100.00;-15917.19;4994905;28;51105;-50
2022/12/25 09:47:09;;;;;;;;;9.00;8.25;;;;;-147.17;100.00;-15917.19;4982722;28;51095;-49
2022/12/25 09:49:42;;;;;;;;;9.75;9.25;;;;;-147.17;100.00;-15917.19;4976266;28;51881;-49
2022/12/25 09:52:15;;;;;;;;;9.67;8.33;;;;;-147.17;100.00;-15917.19;4974826;28;51752;-51
2022/12/25 09:55:05;;;;;;;;;11.00;11.00;;;;;-147.17;100.00;-15917.19;4988740;28;51020;-47
2022/12/25 09:57:31;;;;;;;;;9.50;9.50;;;;;-147.17;100.00;-15917.19;4987239;28;52505;-47
2022/12/25 09:59:56;;;;;;;;;12.00;11.25;;;;;-147.17;100.00;-15917.19;4979159;28;51110;-46
2022/12/25 10:02:59;;;;;;;;;12.00;11.67;;;;;-147.17;100.00;-15917.19;4983432;28;51621;-48
2022/12/25 10:05:45;;;;;;;;;9.33;9.33;;;;;-147.17;100.00;-15917.19;4981771;28;52111;-49
2022/12/25 10:08:28;;;;;;;;;8.75;8.75;;;;;-147.17;100.00;-15917.19;4980705;28;52192;-48
2022/12/25 10:11:09;;;;;;;;;8.25;7.75;;;;;-147.17;100.00;-15917.19;4983894;28;51160;-47
2022/12/25 10:13:53;;;;;;;;;8.25;8.25;;;;;-147.17;100.00;-15917.19;4983873;28;51360;-48
2022/12/25 10:16:28;;;;;;;;;10.50;9.75;;;;;-147.17;100.00;-15917.19;4992752;28;51256;-49
2022/12/25 10:19:17;;;;;;;;;8.00;8.00;;;;;-147.17;100.00;-15917.19;4994831;28;51077;-50
2022/12/25 10:21:44;;;;;;;;;10.00;8.00;;;;;-147.17;100.00;-15917.19;4977103;28;51051;-48
2022/12/25 10:24:34;;;;;;;;;7.33;7.00;;;;;-147.17;100.00;-15917.19;4995345;28;51127;-49
2022/12/25 10:27:04;;;;;;;;;11.00;11.00;;;;;-147.17;100.00;-15917.19;4995118;28;50936;-48
2022/12/25 10:29:31;;;;;;;;;9.33;9.33;;;;;-147.17;100.00;-15917.19;4994950;28;52151;-48
2022/12/25 10:31:57;;;;;;;;;7.67;7.00;;;;;-147.17;100.00;-15917.19;4994676;28;51159;-48
2022/12/25 10:34:23;;;;;;;;;9.33;8.00;;;;;-147.17;100.00;-15917.19;4994935;28;51152;-52
2022/12/25 10:36:49;;;;;;;;;11.25;10.75;;;;;-147.17;100.00;-15917.19;4995079;28;51307;-50
2022/12/25 10:39:20;;;;;;;;;10.25;8.00;;;;;-147.17;100.00;-15917.19;4994877;28;52010;-49
2022/12/25 10:42:04;;;;;;;;;8.67;7.00;;;;;-147.17;100.00;-15917.19;4976741;28;51040;-48
2022/12/25 10:44:29;;;;;;;;;8.50;7.00;;;;;-147.17;100.00;-15917.19;4994627;28;51053;-48
2022/12/25 10:46:57;;;;;;;;;11.00;9.75;;;;;-147.17;100.00;-15917.19;4995359;28;51049;-48
2022/12/25 10:49:27;;;;;;;;;9.00;9.00;;;;;-147.17;100.00;-15917.19;4994347;28;51882;-48
2022/12/25 10:51:52;;;;;;;;;12.00;11.50;;;;;-147.17;100.00;-15917.19;4994406;28;50957;-47
2022/12/25 10:54:24;;;;;;;;;12.33;10.33;;;;;-147.17;100.00;-15917.19;4994133;28;51106;-47
2022/12/25 10:57:12;;;;;;;;;8.67;7.33;;;;;-147.17;100.00;-15917.19;4976711;28;51229;-48
2022/12/25 10:59:47;;;;;;;;;15.00;14.00;;;;;-147.17;100.00;-15917.19;4994087;28;52747;-47
2022/12/25 11:02:12;;;;;;;;;9.50;9.50;;;;;-147.17;100.00;-15917.19;4994425;28;51127;-48
2022/12/25 11:04:38;;;;;;;;;11.00;9.67;;;;;-147.17;100.00;-15917.19;4991955;28;50991;-47
2022/12/25 11:07:05;;;;;;;;;13.00;13.00;;;;;-147.17;100.00;-15917.19;4994633;28;50883;-47
2022/12/25 11:09:31;;;;;;;;;12.00;9.33;;;;;-147.17;100.00;-15917.19;4994122;28;51860;-48
2022/12/25 11:11:58;;;;;;;;;7.67;7.00;;;;;-147.17;100.00;-15917.19;4993878;28;51098;-50
2022/12/25 11:14:25;;;;;;;;;8.75;8.25;;;;;-147.17;100.00;-15917.19;4993979;28;51044;-48
2022/12/25 11:16:51;;;;;;;;;7.67;7.67;;;;;-147.17;100.00;-15917.19;4993163;28;50905;-48
2022/12/25 11:19:27;;;;;;;;;8.33;8.00;;;;;-147.17;100.00;-15917.19;4986110;28;51129;-48
2022/12/25 11:21:58;;;;;;;;;9.67;9.00;;;;;-147.17;100.00;-15917.19;4994127;28;50896;-50
2022/12/25 11:24:27;;;;;;;;;8.33;8.00;;;;;-147.17;100.00;-15917.19;4993625;28;51101;-49
2022/12/25 11:27:03;;;;;;;;;9.67;8.00;;;;;-147.17;100.00;-15917.19;4993744;28;50983;-50
2022/12/25 11:29:46;;;;;;;;;15.00;11.00;;;;;-147.17;100.00;-15917.19;4993619;28;50971;-53
2022/12/25 11:32:27;;;;;;;;;7.67;7.00;;;;;-147.17;100.00;-15917.19;4986530;28;51061;-49
2022/12/25 11:34:54;;;;;;;;;8.00;8.00;;;;;-147.17;100.00;-15917.19;4993863;28;51065;-49
2022/12/25 11:37:30;;;;;;;;;8.00;6.67;;;;;-147.17;100.00;-15917.19;4993955;28;51179;-50
2022/12/25 11:39:55;;;;;;;;;10.33;9.00;;;;;-147.17;100.00;-15917.19;4993187;28;53272;-47
2022/12/25 11:42:42;;;;;;;;;11.00;8.00;;;;;-147.17;100.00;-15917.19;4989198;28;51062;-50
2022/12/25 11:45:25;;;;;;;;;11.67;10.33;;;;;-147.17;100.00;-15917.19;4993861;28;51093;-47
2022/12/25 11:47:58;;;;;;;;;11.00;9.67;;;;;-147.17;100.00;-15917.19;4993900;28;51037;-48
2022/12/25 11:50:31;;;;;;;;;12.00;11.00;;;;;-147.17;100.00;-15917.19;4993325;28;52040;-48
2022/12/25 11:53:00;;;;;;;;;11.33;11.33;;;;;-147.17;100.00;-15917.19;4993818;28;51198;-51
2022/12/25 11:55:56;;;;;;;;;9.67;9.67;;;;;-147.17;100.00;-15917.19;4993049;28;51182;-49
2022/12/25 11:58:27;;;;;;;;;13.25;13.00;;;;;-147.17;100.00;-15917.19;4992300;28;51278;-49
2022/12/25 12:00:56;;;;;;;;;12.00;10.67;;;;;-147.17;100.00;-15917.19;4986166;28;51747;-48
2022/12/25 12:03:28;;;;;;;;;9.33;9.33;;;;;-147.17;100.00;-15917.19;4992576;28;51048;-50
2022/12/25 12:06:12;;;;;;;;;10.50;9.00;;;;;-147.17;100.00;-15917.19;4993356;28;51239;-49
2022/12/25 12:08:38;;;;;;;;;12.00;12.00;;;;;-147.17;100.00;-15917.19;4993556;28;50977;-47
2022/12/25 12:11:15;;;;;;;;;11.00;10.33;;;;;-147.17;100.00;-15917.19;4992562;28;50996;-48
2022/12/25 12:13:56;;;;;;;;;12.50;12.00;;;;;-147.17;100.00;-15917.19;4992937;28;50938;-48
2022/12/25 12:16:22;;;;;;;;;7.00;7.00;;;;;-147.17;100.00;-15917.19;4992996;28;51015;-48
2022/12/25 12:18:47;;;;;;;;;12.75;11.75;;;;;-147.17;100.00;-15917.19;4993537;28;51001;-47
2022/12/25 12:21:23;;;;;;;;;15.00;14.00;;;;;-147.17;100.00;-15917.19;4992653;28;51104;-48
2022/12/25 12:24:03;;;;;;;;;13.00;11.00;;;;;-147.17;100.00;-15917.19;4993056;28;51116;-48
2022/12/25 12:26:35;;;;;;;;;7.00;7.00;;;;;-147.17;100.00;-15917.19;4975626;28;50939;-49
2022/12/25 12:29:03;;;;;;;;;8.00;8.00;;;;;-147.17;100.00;-15917.19;4975613;28;51032;-48
2022/12/25 12:31:44;;;;;;;;;9.67;8.00;;;;;-147.17;100.00;-15917.19;4992870;28;52120;-48
2022/12/25 12:34:30;;;;;;;;;8.67;8.00;;;;;-147.17;100.00;-15917.19;4992774;28;50986;-48
2022/12/25 12:37:02;;;;;;;;;9.33;8.00;;;;;-147.17;100.00;-15917.19;4993028;28;50884;-51
2022/12/25 12:39:35;;;;;;;;;8.25;7.75;;;;;-147.17;100.00;-15917.19;4993279;28;51102;-48
2022/12/25 12:42:01;;;;;;;;;12.00;11.00;;;;;-147.17;100.00;-15917.19;4992117;28;52268;-50